Cranston, Rhode Island
Current Conditions -  °F | °C
As of 6:04 PM on Wednesday 22 Oct 2014 (Local Time) from KPVD Reporting Station
Light Rain Light Rain  
Wind Chill: 51°   Ceiling: 1100
Heat Index: 51°   Visibility: 3mi
Dew Point: 49°   Wind: 25mph
Humidity: 92%   Direction: 20°NNE
Pressure: 29.81"   Gusts: 37mph
Location:  41.78°N, 71.43°W
Report Text: KPVD 222204Z 02022G32KT 3SM -RA BR OVC011 11/09 A2981 RMK AO2 PK WND 01032/2203 SFC VIS 4 P0000 T01060094
Loading
Personal Weather Stations






























Interactive Weather Map
Tropical Storm Tracking
New forecast layout! Learn more

10-Day Weather Forecast

Advertisements
Track Severe Weather on mobile